sensor_id;sensor_type;location;lat;lon;timestamp;P1;durP1;ratioP1;P2;durP2;ratioP2
25549;SDS011;13444;50.562;7.262;2023-08-06T00:00:04;5.68;;;3.22;;
25549;SDS011;13444;50.562;7.262;2023-08-06T00:02:30;4.97;;;3.50;;
25549;SDS011;13444;50.562;7.262;2023-08-06T00:04:55;4.05;;;3.25;;
25549;SDS011;13444;50.562;7.262;2023-08-06T00:07:21;6.38;;;3.50;;
25549;SDS011;13444;50.562;7.262;2023-08-06T00:09:46;4.20;;;3.30;;
25549;SDS011;13444;50.562;7.262;2023-08-06T00:12:12;5.10;;;3.20;;
25549;SDS011;13444;50.562;7.262;2023-08-06T00:14:37;5.18;;;3.20;;
25549;SDS011;13444;50.562;7.262;2023-08-06T00:17:03;6.38;;;3.83;;
25549;SDS011;13444;50.562;7.262;2023-08-06T00:19:29;5.50;;;2.97;;
25549;SDS011;13444;50.562;7.262;2023-08-06T00:21:56;3.90;;;3.20;;
25549;SDS011;13444;50.562;7.262;2023-08-06T00:24:21;3.00;;;2.70;;
25549;SDS011;13444;50.562;7.262;2023-08-06T00:26:47;4.75;;;2.90;;
25549;SDS011;13444;50.562;7.262;2023-08-06T00:29:12;3.72;;;3.10;;
25549;SDS011;13444;50.562;7.262;2023-08-06T00:31:38;12.80;;;3.28;;
25549;SDS011;13444;50.562;7.262;2023-08-06T00:34:03;3.80;;;2.92;;
25549;SDS011;13444;50.562;7.262;2023-08-06T00:36:29;4.20;;;2.95;;
25549;SDS011;13444;50.562;7.262;2023-08-06T00:38:54;3.53;;;2.78;;
25549;SDS011;13444;50.562;7.262;2023-08-06T00:41:20;7.60;;;3.10;;
25549;SDS011;13444;50.562;7.262;2023-08-06T00:43:46;4.43;;;3.05;;
25549;SDS011;13444;50.562;7.262;2023-08-06T00:46:11;6.38;;;3.33;;
25549;SDS011;13444;50.562;7.262;2023-08-06T00:48:37;4.57;;;3.17;;
25549;SDS011;13444;50.562;7.262;2023-08-06T00:51:03;4.22;;;3.28;;
25549;SDS011;13444;50.562;7.262;2023-08-06T00:53:29;9.77;;;2.97;;
25549;SDS011;13444;50.562;7.262;2023-08-06T00:55:54;6.75;;;3.30;;
25549;SDS011;13444;50.562;7.262;2023-08-06T00:58:20;3.92;;;3.47;;
25549;SDS011;13444;50.562;7.262;2023-08-06T01:00:46;9.65;;;3.45;;
25549;SDS011;13444;50.562;7.262;2023-08-06T01:03:11;6.18;;;3.30;;
25549;SDS011;13444;50.562;7.262;2023-08-06T01:05:37;7.38;;;2.85;;
25549;SDS011;13444;50.562;7.262;2023-08-06T01:08:15;4.88;;;3.30;;
25549;SDS011;13444;50.562;7.262;2023-08-06T01:16:06;8.07;;;3.20;;
25549;SDS011;13444;50.562;7.262;2023-08-06T01:18:34;5.95;;;3.20;;
25549;SDS011;13444;50.562;7.262;2023-08-06T01:21:00;4.00;;;2.70;;
25549;SDS011;13444;50.562;7.262;2023-08-06T01:23:26;4.03;;;2.90;;
25549;SDS011;13444;50.562;7.262;2023-08-06T01:28:48;3.85;;;2.83;;
25549;SDS011;13444;50.562;7.262;2023-08-06T01:31:27;4.28;;;2.83;;
25549;SDS011;13444;50.562;7.262;2023-08-06T01:33:58;5.57;;;3.53;;
25549;SDS011;13444;50.562;7.262;2023-08-06T01:36:26;4.75;;;3.10;;
25549;SDS011;13444;50.562;7.262;2023-08-06T01:38:53;5.88;;;3.20;;
25549;SDS011;13444;50.562;7.262;2023-08-06T01:41:19;4.47;;;3.00;;
25549;SDS011;13444;50.562;7.262;2023-08-06T01:43:44;8.38;;;3.10;;
25549;SDS011;13444;50.562;7.262;2023-08-06T01:46:10;4.93;;;2.97;;
25549;SDS011;13444;50.562;7.262;2023-08-06T01:48:35;4.95;;;3.05;;
25549;SDS011;13444;50.562;7.262;2023-08-06T01:51:03;3.50;;;2.70;;
25549;SDS011;13444;50.562;7.262;2023-08-06T01:53:30;4.57;;;2.38;;
25549;SDS011;13444;50.562;7.262;2023-08-06T01:55:56;5.50;;;2.67;;
25549;SDS011;13444;50.562;7.262;2023-08-06T01:58:22;9.48;;;2.92;;
25549;SDS011;13444;50.562;7.262;2023-08-06T02:00:48;5.07;;;3.15;;
25549;SDS011;13444;50.562;7.262;2023-08-06T02:03:13;5.57;;;2.53;;
25549;SDS011;13444;50.562;7.262;2023-08-06T02:05:39;5.80;;;2.80;;
25549;SDS011;13444;50.562;7.262;2023-08-06T02:08:05;3.38;;;3.03;;
25549;SDS011;13444;50.562;7.262;2023-08-06T02:10:31;4.85;;;2.92;;
25549;SDS011;13444;50.562;7.262;2023-08-06T02:12:56;4.07;;;2.65;;
25549;SDS011;13444;50.562;7.262;2023-08-06T02:15:21;6.22;;;2.75;;
25549;SDS011;13444;50.562;7.262;2023-08-06T02:17:47;4.65;;;2.83;;
25549;SDS011;13444;50.562;7.262;2023-08-06T02:20:12;3.38;;;2.65;;
25549;SDS011;13444;50.562;7.262;2023-08-06T02:22:38;3.67;;;3.22;;
25549;SDS011;13444;50.562;7.262;2023-08-06T02:25:04;4.13;;;2.75;;
25549;SDS011;13444;50.562;7.262;2023-08-06T02:27:29;4.82;;;2.75;;
25549;SDS011;13444;50.562;7.262;2023-08-06T02:29:55;4.25;;;2.88;;
25549;SDS011;13444;50.562;7.262;2023-08-06T02:32:21;4.75;;;2.83;;
25549;SDS011;13444;50.562;7.262;2023-08-06T02:34:46;3.72;;;3.13;;
25549;SDS011;13444;50.562;7.262;2023-08-06T02:37:12;5.82;;;3.53;;
25549;SDS011;13444;50.562;7.262;2023-08-06T02:39:37;7.65;;;3.25;;
25549;SDS011;13444;50.562;7.262;2023-08-06T02:42:05;5.40;;;4.20;;
25549;SDS011;13444;50.562;7.262;2023-08-06T02:44:31;4.70;;;3.33;;
25549;SDS011;13444;50.562;7.262;2023-08-06T02:46:57;10.00;;;3.50;;
25549;SDS011;13444;50.562;7.262;2023-08-06T02:49:22;7.00;;;3.78;;
25549;SDS011;13444;50.562;7.262;2023-08-06T02:51:48;7.30;;;3.90;;
25549;SDS011;13444;50.562;7.262;2023-08-06T02:54:13;7.32;;;3.80;;
25549;SDS011;13444;50.562;7.262;2023-08-06T02:56:42;6.07;;;3.22;;
25549;SDS011;13444;50.562;7.262;2023-08-06T02:59:08;7.63;;;3.67;;
25549;SDS011;13444;50.562;7.262;2023-08-06T03:01:34;4.35;;;3.08;;
25549;SDS011;13444;50.562;7.262;2023-08-06T03:04:01;4.53;;;2.88;;
25549;SDS011;13444;50.562;7.262;2023-08-06T03:06:26;6.05;;;2.72;;
25549;SDS011;13444;50.562;7.262;2023-08-06T03:08:52;4.75;;;2.58;;
25549;SDS011;13444;50.562;7.262;2023-08-06T03:11:17;3.83;;;2.80;;
25549;SDS011;13444;50.562;7.262;2023-08-06T03:13:43;5.47;;;2.80;;
25549;SDS011;13444;50.562;7.262;2023-08-06T03:16:08;4.45;;;2.47;;
25549;SDS011;13444;50.562;7.262;2023-08-06T03:18:34;4.63;;;2.85;;
25549;SDS011;13444;50.562;7.262;2023-08-06T03:20:59;4.93;;;3.13;;
25549;SDS011;13444;50.562;7.262;2023-08-06T03:23:25;3.17;;;2.83;;
25549;SDS011;13444;50.562;7.262;2023-08-06T03:25:50;4.78;;;3.30;;
25549;SDS011;13444;50.562;7.262;2023-08-06T03:28:16;7.00;;;3.00;;
25549;SDS011;13444;50.562;7.262;2023-08-06T03:30:41;4.78;;;3.17;;
25549;SDS011;13444;50.562;7.262;2023-08-06T03:33:07;5.65;;;3.03;;
25549;SDS011;13444;50.562;7.262;2023-08-06T03:35:32;4.25;;;2.72;;
25549;SDS011;13444;50.562;7.262;2023-08-06T03:37:58;3.60;;;2.72;;
25549;SDS011;13444;50.562;7.262;2023-08-06T03:40:23;5.20;;;2.85;;
25549;SDS011;13444;50.562;7.262;2023-08-06T03:42:49;3.90;;;2.58;;
25549;SDS011;13444;50.562;7.262;2023-08-06T03:45:14;5.03;;;2.60;;
25549;SDS011;13444;50.562;7.262;2023-08-06T03:47:40;4.97;;;2.63;;
25549;SDS011;13444;50.562;7.262;2023-08-06T03:50:06;6.00;;;2.85;;
25549;SDS011;13444;50.562;7.262;2023-08-06T03:52:32;4.13;;;2.38;;
25549;SDS011;13444;50.562;7.262;2023-08-06T03:54:57;3.33;;;2.40;;
25549;SDS011;13444;50.562;7.262;2023-08-06T03:57:23;7.80;;;2.63;;
25549;SDS011;13444;50.562;7.262;2023-08-06T03:59:48;3.25;;;2.70;;
25549;SDS011;13444;50.562;7.262;2023-08-06T04:02:14;5.28;;;3.22;;
25549;SDS011;13444;50.562;7.262;2023-08-06T04:04:39;5.38;;;3.22;;
25549;SDS011;13444;50.562;7.262;2023-08-06T04:07:05;5.85;;;3.42;;
25549;SDS011;13444;50.562;7.262;2023-08-06T04:09:30;4.18;;;2.70;;
25549;SDS011;13444;50.562;7.262;2023-08-06T04:11:56;3.97;;;2.65;;
25549;SDS011;13444;50.562;7.262;2023-08-06T04:14:23;5.38;;;2.80;;
25549;SDS011;13444;50.562;7.262;2023-08-06T04:16:49;7.10;;;2.50;;
25549;SDS011;13444;50.562;7.262;2023-08-06T04:19:14;4.38;;;2.63;;
25549;SDS011;13444;50.562;7.262;2023-08-06T04:21:40;4.28;;;2.40;;
25549;SDS011;13444;50.562;7.262;2023-08-06T04:24:05;7.28;;;2.67;;
25549;SDS011;13444;50.562;7.262;2023-08-06T04:26:31;7.13;;;2.53;;
25549;SDS011;13444;50.562;7.262;2023-08-06T04:28:56;2.90;;;2.13;;
25549;SDS011;13444;50.562;7.262;2023-08-06T04:31:22;4.05;;;2.33;;
25549;SDS011;13444;50.562;7.262;2023-08-06T04:33:48;4.65;;;1.90;;
25549;SDS011;13444;50.562;7.262;2023-08-06T04:36:13;5.68;;;2.30;;
25549;SDS011;13444;50.562;7.262;2023-08-06T04:38:39;4.30;;;2.53;;
25549;SDS011;13444;50.562;7.262;2023-08-06T04:41:09;6.05;;;2.85;;
25549;SDS011;13444;50.562;7.262;2023-08-06T04:43:35;10.77;;;2.67;;
25549;SDS011;13444;50.562;7.262;2023-08-06T04:46:00;2.88;;;2.30;;
25549;SDS011;13444;50.562;7.262;2023-08-06T04:48:26;6.63;;;2.53;;
25549;SDS011;13444;50.562;7.262;2023-08-06T04:50:51;4.47;;;2.63;;
25549;SDS011;13444;50.562;7.262;2023-08-06T04:53:17;4.47;;;2.75;;
25549;SDS011;13444;50.562;7.262;2023-08-06T04:55:42;3.38;;;2.33;;
25549;SDS011;13444;50.562;7.262;2023-08-06T04:58:09;5.15;;;2.63;;
25549;SDS011;13444;50.562;7.262;2023-08-06T05:00:35;5.93;;;2.35;;
25549;SDS011;13444;50.562;7.262;2023-08-06T05:03:00;5.03;;;2.85;;
25549;SDS011;13444;50.562;7.262;2023-08-06T05:05:26;4.72;;;3.00;;
25549;SDS011;13444;50.562;7.262;2023-08-06T05:07:53;4.28;;;2.78;;
25549;SDS011;13444;50.562;7.262;2023-08-06T05:10:20;6.88;;;3.08;;
25549;SDS011;13444;50.562;7.262;2023-08-06T05:12:46;7.13;;;2.47;;
25549;SDS011;13444;50.562;7.262;2023-08-06T05:15:11;6.97;;;2.70;;
25549;SDS011;13444;50.562;7.262;2023-08-06T05:17:37;4.22;;;2.47;;
25549;SDS011;13444;50.562;7.262;2023-08-06T05:20:03;4.68;;;2.55;;
25549;SDS011;13444;50.562;7.262;2023-08-06T05:22:29;6.15;;;2.97;;
25549;SDS011;13444;50.562;7.262;2023-08-06T05:24:54;4.15;;;2.83;;
25549;SDS011;13444;50.562;7.262;2023-08-06T05:27:20;5.57;;;3.15;;
25549;SDS011;13444;50.562;7.262;2023-08-06T05:29:45;5.45;;;3.20;;
25549;SDS011;13444;50.562;7.262;2023-08-06T05:32:13;3.53;;;2.38;;
25549;SDS011;13444;50.562;7.262;2023-08-06T05:34:38;3.70;;;2.70;;
25549;SDS011;13444;50.562;7.262;2023-08-06T05:37:04;3.70;;;2.40;;
25549;SDS011;13444;50.562;7.262;2023-08-06T05:39:30;5.47;;;2.85;;
25549;SDS011;13444;50.562;7.262;2023-08-06T05:41:55;2.50;;;2.20;;
25549;SDS011;13444;50.562;7.262;2023-08-06T05:44:21;3.45;;;2.13;;
25549;SDS011;13444;50.562;7.262;2023-08-06T05:46:48;2.97;;;2.13;;
25549;SDS011;13444;50.562;7.262;2023-08-06T05:49:14;3.03;;;2.10;;
25549;SDS011;13444;50.562;7.262;2023-08-06T05:51:43;2.50;;;2.15;;
25549;SDS011;13444;50.562;7.262;2023-08-06T05:54:08;3.28;;;2.20;;
25549;SDS011;13444;50.562;7.262;2023-08-06T05:56:34;2.85;;;2.05;;
25549;SDS011;13444;50.562;7.262;2023-08-06T05:58:59;2.78;;;1.83;;
25549;SDS011;13444;50.562;7.262;2023-08-06T06:01:25;3.28;;;2.50;;
25549;SDS011;13444;50.562;7.262;2023-08-06T06:03:50;2.88;;;2.10;;
25549;SDS011;13444;50.562;7.262;2023-08-06T06:06:16;3.85;;;1.98;;
25549;SDS011;13444;50.562;7.262;2023-08-06T06:08:44;7.72;;;1.90;;
25549;SDS011;13444;50.562;7.262;2023-08-06T06:11:10;2.45;;;1.88;;
25549;SDS011;13444;50.562;7.262;2023-08-06T06:13:35;5.03;;;2.20;;
25549;SDS011;13444;50.562;7.262;2023-08-06T06:16:01;3.00;;;1.83;;
25549;SDS011;13444;50.562;7.262;2023-08-06T06:18:26;7.05;;;1.67;;
25549;SDS011;13444;50.562;7.262;2023-08-06T06:20:52;2.30;;;2.10;;
25549;SDS011;13444;50.562;7.262;2023-08-06T06:23:17;1.70;;;1.60;;
25549;SDS011;13444;50.562;7.262;2023-08-06T06:25:43;2.97;;;1.73;;
25549;SDS011;13444;50.562;7.262;2023-08-06T06:28:13;2.47;;;1.92;;
25549;SDS011;13444;50.562;7.262;2023-08-06T06:30:38;3.10;;;1.75;;
25549;SDS011;13444;50.562;7.262;2023-08-06T06:33:05;2.30;;;2.03;;
25549;SDS011;13444;50.562;7.262;2023-08-06T06:35:31;3.55;;;1.88;;
25549;SDS011;13444;50.562;7.262;2023-08-06T06:37:56;3.33;;;1.90;;
25549;SDS011;13444;50.562;7.262;2023-08-06T06:40:22;1.70;;;1.60;;
25549;SDS011;13444;50.562;7.262;2023-08-06T06:42:47;2.40;;;1.65;;
25549;SDS011;13444;50.562;7.262;2023-08-06T06:45:13;1.92;;;1.58;;
25549;SDS011;13444;50.562;7.262;2023-08-06T06:47:38;2.22;;;1.45;;
25549;SDS011;13444;50.562;7.262;2023-08-06T06:50:04;1.80;;;1.30;;
25549;SDS011;13444;50.562;7.262;2023-08-06T06:52:30;3.40;;;1.30;;
25549;SDS011;13444;50.562;7.262;2023-08-06T06:54:55;1.30;;;1.00;;
25549;SDS011;13444;50.562;7.262;2023-08-06T06:57:21;2.25;;;1.10;;
25549;SDS011;13444;50.562;7.262;2023-08-06T06:59:47;1.23;;;1.00;;
25549;SDS011;13444;50.562;7.262;2023-08-06T07:02:12;1.80;;;1.00;;
25549;SDS011;13444;50.562;7.262;2023-08-06T07:04:37;1.05;;;0.95;;
25549;SDS011;13444;50.562;7.262;2023-08-06T07:07:03;1.88;;;1.10;;
25549;SDS011;13444;50.562;7.262;2023-08-06T07:09:29;1.88;;;1.10;;
25549;SDS011;13444;50.562;7.262;2023-08-06T07:11:54;2.15;;;1.17;;
25549;SDS011;13444;50.562;7.262;2023-08-06T07:14:20;1.00;;;1.00;;
25549;SDS011;13444;50.562;7.262;2023-08-06T07:16:45;2.65;;;1.08;;
25549;SDS011;13444;50.562;7.262;2023-08-06T07:19:11;2.03;;;1.30;;
25549;SDS011;13444;50.562;7.262;2023-08-06T07:21:36;1.20;;;1.10;;
25549;SDS011;13444;50.562;7.262;2023-08-06T07:24:02;3.20;;;1.30;;
25549;SDS011;13444;50.562;7.262;2023-08-06T07:26:27;3.13;;;1.30;;
25549;SDS011;13444;50.562;7.262;2023-08-06T07:28:53;1.30;;;1.20;;
25549;SDS011;13444;50.562;7.262;2023-08-06T07:31:18;2.35;;;1.40;;
25549;SDS011;13444;50.562;7.262;2023-08-06T07:33:44;2.03;;;1.50;;
25549;SDS011;13444;50.562;7.262;2023-08-06T07:36:10;2.28;;;1.23;;
25549;SDS011;13444;50.562;7.262;2023-08-06T07:38:37;2.97;;;1.50;;
25549;SDS011;13444;50.562;7.262;2023-08-06T07:41:03;1.52;;;1.20;;
25549;SDS011;13444;50.562;7.262;2023-08-06T07:43:30;1.70;;;1.60;;
25549;SDS011;13444;50.562;7.262;2023-08-06T07:45:59;2.40;;;1.20;;
25549;SDS011;13444;50.562;7.262;2023-08-06T07:48:27;1.40;;;1.08;;
25549;SDS011;13444;50.562;7.262;2023-08-06T07:50:57;2.10;;;0.95;;
25549;SDS011;13444;50.562;7.262;2023-08-06T07:53:23;3.60;;;1.10;;
25549;SDS011;13444;50.562;7.262;2023-08-06T07:55:51;0.95;;;0.85;;
25549;SDS011;13444;50.562;7.262;2023-08-06T07:58:19;1.65;;;1.20;;
25549;SDS011;13444;50.562;7.262;2023-08-06T08:00:45;1.45;;;1.02;;
25549;SDS011;13444;50.562;7.262;2023-08-06T08:03:14;1.08;;;0.90;;
25549;SDS011;13444;50.562;7.262;2023-08-06T08:05:41;1.80;;;0.70;;
25549;SDS011;13444;50.562;7.262;2023-08-06T08:08:07;1.05;;;0.70;;
25549;SDS011;13444;50.562;7.262;2023-08-06T08:10:33;1.77;;;0.93;;
25549;SDS011;13444;50.562;7.262;2023-08-06T08:12:59;2.08;;;0.73;;
25549;SDS011;13444;50.562;7.262;2023-08-06T08:15:29;0.70;;;0.70;;
25549;SDS011;13444;50.562;7.262;2023-08-06T08:17:55;0.70;;;0.70;;
25549;SDS011;13444;50.562;7.262;2023-08-06T08:20:22;1.42;;;0.88;;
25549;SDS011;13444;50.562;7.262;2023-08-06T08:22:48;0.93;;;0.70;;
25549;SDS011;13444;50.562;7.262;2023-08-06T08:25:13;1.10;;;0.77;;
25549;SDS011;13444;50.562;7.262;2023-08-06T08:27:40;0.73;;;0.60;;
25549;SDS011;13444;50.562;7.262;2023-08-06T08:30:06;0.70;;;0.70;;
25549;SDS011;13444;50.562;7.262;2023-08-06T08:32:32;1.30;;;0.80;;
25549;SDS011;13444;50.562;7.262;2023-08-06T08:34:57;1.20;;;0.77;;
25549;SDS011;13444;50.562;7.262;2023-08-06T08:37:23;1.95;;;0.80;;
25549;SDS011;13444;50.562;7.262;2023-08-06T08:39:49;2.20;;;0.80;;
25549;SDS011;13444;50.562;7.262;2023-08-06T08:42:15;0.98;;;0.80;;
25549;SDS011;13444;50.562;7.262;2023-08-06T08:44:42;0.90;;;0.70;;
25549;SDS011;13444;50.562;7.262;2023-08-06T08:47:08;2.05;;;0.70;;
25549;SDS011;13444;50.562;7.262;2023-08-06T08:49:35;0.95;;;0.73;;
25549;SDS011;13444;50.562;7.262;2023-08-06T08:52:02;0.90;;;0.60;;
25549;SDS011;13444;50.562;7.262;2023-08-06T08:54:31;2.17;;;0.90;;
25549;SDS011;13444;50.562;7.262;2023-08-06T08:56:58;0.77;;;0.77;;
25549;SDS011;13444;50.562;7.262;2023-08-06T08:59:23;1.30;;;0.70;;
25549;SDS011;13444;50.562;7.262;2023-08-06T09:01:49;1.48;;;0.60;;
25549;SDS011;13444;50.562;7.262;2023-08-06T09:04:16;1.05;;;0.90;;
25549;SDS011;13444;50.562;7.262;2023-08-06T09:06:43;2.10;;;1.10;;
25549;SDS011;13444;50.562;7.262;2023-08-06T09:09:12;1.35;;;0.90;;
25549;SDS011;13444;50.562;7.262;2023-08-06T09:11:45;0.98;;;0.88;;
25549;SDS011;13444;50.562;7.262;2023-08-06T09:14:14;2.03;;;0.90;;
25549;SDS011;13444;50.562;7.262;2023-08-06T09:16:40;1.27;;;0.93;;
25549;SDS011;13444;50.562;7.262;2023-08-06T09:19:11;3.38;;;1.10;;
25549;SDS011;13444;50.562;7.262;2023-08-06T09:21:41;3.05;;;1.27;;
25549;SDS011;13444;50.562;7.262;2023-08-06T09:24:11;6.35;;;1.60;;
25549;SDS011;13444;50.562;7.262;2023-08-06T09:26:41;3.25;;;1.50;;
25549;SDS011;13444;50.562;7.262;2023-08-06T09:29:08;2.58;;;1.42;;
25549;SDS011;13444;50.562;7.262;2023-08-06T09:31:43;1.85;;;1.05;;
25549;SDS011;13444;50.562;7.262;2023-08-06T09:34:10;3.45;;;1.20;;
25549;SDS011;13444;50.562;7.262;2023-08-06T09:36:41;2.22;;;0.90;;
25549;SDS011;13444;50.562;7.262;2023-08-06T09:39:18;1.05;;;0.80;;
25549;SDS011;13444;50.562;7.262;2023-08-06T09:41:44;0.98;;;0.82;;
25549;SDS011;13444;50.562;7.262;2023-08-06T09:44:17;1.60;;;0.88;;
25549;SDS011;13444;50.562;7.262;2023-08-06T09:46:47;1.77;;;0.80;;
25549;SDS011;13444;50.562;7.262;2023-08-06T09:49:22;0.77;;;0.70;;
25549;SDS011;13444;50.562;7.262;2023-08-06T09:52:04;1.73;;;0.85;;
25549;SDS011;13444;50.562;7.262;2023-08-06T09:54:30;1.52;;;0.55;;
25549;SDS011;13444;50.562;7.262;2023-08-06T09:56:57;0.40;;;0.40;;
25549;SDS011;13444;50.562;7.262;2023-08-06T09:59:23;0.40;;;0.40;;
25549;SDS011;13444;50.562;7.262;2023-08-06T10:01:49;1.67;;;0.65;;
25549;SDS011;13444;50.562;7.262;2023-08-06T10:04:15;0.45;;;0.45;;
25549;SDS011;13444;50.562;7.262;2023-08-06T10:06:46;0.50;;;0.50;;
25549;SDS011;13444;50.562;7.262;2023-08-06T10:09:13;0.20;;;0.20;;
25549;SDS011;13444;50.562;7.262;2023-08-06T10:11:38;0.77;;;0.50;;
25549;SDS011;13444;50.562;7.262;2023-08-06T10:14:08;0.50;;;0.50;;
25549;SDS011;13444;50.562;7.262;2023-08-06T10:16:37;2.20;;;0.55;;
25549;SDS011;13444;50.562;7.262;2023-08-06T10:19:04;0.65;;;0.45;;
25549;SDS011;13444;50.562;7.262;2023-08-06T10:21:32;0.80;;;0.55;;
25549;SDS011;13444;50.562;7.262;2023-08-06T10:23:57;2.67;;;0.73;;
25549;SDS011;13444;50.562;7.262;2023-08-06T10:26:27;0.85;;;0.60;;
25549;SDS011;13444;50.562;7.262;2023-08-06T10:28:54;1.48;;;0.60;;
25549;SDS011;13444;50.562;7.262;2023-08-06T10:31:20;0.73;;;0.65;;
25549;SDS011;13444;50.562;7.262;2023-08-06T10:34:05;1.38;;;0.65;;
25549;SDS011;13444;50.562;7.262;2023-08-06T10:36:32;1.27;;;0.77;;
25549;SDS011;13444;50.562;7.262;2023-08-06T10:38:58;0.80;;;0.80;;
25549;SDS011;13444;50.562;7.262;2023-08-06T10:41:29;1.42;;;1.17;;
25549;SDS011;13444;50.562;7.262;2023-08-06T10:44:07;1.25;;;1.00;;
25549;SDS011;13444;50.562;7.262;2023-08-06T10:46:34;2.00;;;1.38;;
25549;SDS011;13444;50.562;7.262;2023-08-06T10:48:59;2.45;;;1.10;;
25549;SDS011;13444;50.562;7.262;2023-08-06T10:51:26;0.80;;;0.80;;
25549;SDS011;13444;50.562;7.262;2023-08-06T10:53:52;1.77;;;1.10;;
25549;SDS011;13444;50.562;7.262;2023-08-06T10:56:19;3.75;;;1.20;;
25549;SDS011;13444;50.562;7.262;2023-08-06T10:58:50;2.35;;;1.00;;
25549;SDS011;13444;50.562;7.262;2023-08-06T11:01:21;3.65;;;1.10;;
25549;SDS011;13444;50.562;7.262;2023-08-06T11:03:47;2.53;;;1.30;;
25549;SDS011;13444;50.562;7.262;2023-08-06T11:06:22;6.20;;;1.17;;
25549;SDS011;13444;50.562;7.262;2023-08-06T11:08:49;2.33;;;1.20;;
25549;SDS011;13444;50.562;7.262;2023-08-06T11:11:16;2.53;;;1.13;;
25549;SDS011;13444;50.562;7.262;2023-08-06T11:13:43;2.00;;;0.98;;
25549;SDS011;13444;50.562;7.262;2023-08-06T11:16:11;2.58;;;0.95;;
25549;SDS011;13444;50.562;7.262;2023-08-06T11:18:40;1.45;;;0.77;;
25549;SDS011;13444;50.562;7.262;2023-08-06T11:21:09;2.60;;;1.45;;
25549;SDS011;13444;50.562;7.262;2023-08-06T11:23:36;5.90;;;1.70;;
25549;SDS011;13444;50.562;7.262;2023-08-06T11:26:02;5.95;;;1.88;;
25549;SDS011;13444;50.562;7.262;2023-08-06T11:28:28;4.03;;;1.38;;
25549;SDS011;13444;50.562;7.262;2023-08-06T11:30:54;3.08;;;1.30;;
25549;SDS011;13444;50.562;7.262;2023-08-06T11:33:25;3.25;;;1.23;;
25549;SDS011;13444;50.562;7.262;2023-08-06T11:35:52;2.45;;;1.30;;
25549;SDS011;13444;50.562;7.262;2023-08-06T11:38:19;1.73;;;1.00;;
25549;SDS011;13444;50.562;7.262;2023-08-06T11:40:45;3.42;;;1.27;;
25549;SDS011;13444;50.562;7.262;2023-08-06T11:43:12;3.13;;;1.08;;
25549;SDS011;13444;50.562;7.262;2023-08-06T11:45:38;1.60;;;0.90;;
25549;SDS011;13444;50.562;7.262;2023-08-06T11:48:04;3.95;;;0.90;;
25549;SDS011;13444;50.562;7.262;2023-08-06T11:50:30;1.75;;;0.90;;
25549;SDS011;13444;50.562;7.262;2023-08-06T11:52:57;1.77;;;1.10;;
25549;SDS011;13444;50.562;7.262;2023-08-06T11:55:24;3.75;;;1.05;;
25549;SDS011;13444;50.562;7.262;2023-08-06T11:57:50;1.73;;;0.73;;
25549;SDS011;13444;50.562;7.262;2023-08-06T12:00:16;2.33;;;0.90;;
25549;SDS011;13444;50.562;7.262;2023-08-06T12:02:44;3.10;;;1.00;;
25549;SDS011;13444;50.562;7.262;2023-08-06T12:05:11;2.03;;;0.98;;
25549;SDS011;13444;50.562;7.262;2023-08-06T12:07:39;2.45;;;0.95;;
25549;SDS011;13444;50.562;7.262;2023-08-06T12:10:12;1.00;;;0.80;;
25549;SDS011;13444;50.562;7.262;2023-08-06T12:12:38;2.15;;;1.00;;
25549;SDS011;13444;50.562;7.262;2023-08-06T12:15:05;1.75;;;0.60;;
25549;SDS011;13444;50.562;7.262;2023-08-06T12:17:32;1.10;;;0.70;;
25549;SDS011;13444;50.562;7.262;2023-08-06T12:19:57;2.60;;;0.85;;
25549;SDS011;13444;50.562;7.262;2023-08-06T12:22:23;3.97;;;1.15;;
25549;SDS011;13444;50.562;7.262;2023-08-06T12:24:49;1.90;;;1.10;;
25549;SDS011;13444;50.562;7.262;2023-08-06T12:27:15;4.50;;;1.10;;
25549;SDS011;13444;50.562;7.262;2023-08-06T12:29:44;3.45;;;1.05;;
25549;SDS011;13444;50.562;7.262;2023-08-06T12:32:12;3.20;;;0.95;;
25549;SDS011;13444;50.562;7.262;2023-08-06T12:34:38;4.53;;;1.05;;
25549;SDS011;13444;50.562;7.262;2023-08-06T12:37:05;5.90;;;1.10;;
25549;SDS011;13444;50.562;7.262;2023-08-06T12:39:32;2.83;;;1.10;;
25549;SDS011;13444;50.562;7.262;2023-08-06T12:41:58;3.33;;;1.10;;
25549;SDS011;13444;50.562;7.262;2023-08-06T12:44:24;3.25;;;0.68;;
25549;SDS011;13444;50.562;7.262;2023-08-06T12:46:50;2.25;;;1.02;;
25549;SDS011;13444;50.562;7.262;2023-08-06T12:49:19;2.78;;;1.00;;
25549;SDS011;13444;50.562;7.262;2023-08-06T12:51:50;4.38;;;1.17;;
25549;SDS011;13444;50.562;7.262;2023-08-06T12:54:17;3.40;;;1.23;;
25549;SDS011;13444;50.562;7.262;2023-08-06T12:56:44;2.10;;;0.90;;
25549;SDS011;13444;50.562;7.262;2023-08-06T12:59:10;1.00;;;0.80;;
25549;SDS011;13444;50.562;7.262;2023-08-06T13:01:37;2.67;;;1.00;;
25549;SDS011;13444;50.562;7.262;2023-08-06T13:04:03;1.25;;;0.77;;
25549;SDS011;13444;50.562;7.262;2023-08-06T13:06:29;3.08;;;1.08;;
25549;SDS011;13444;50.562;7.262;2023-08-06T13:08:55;3.50;;;1.05;;
25549;SDS011;13444;50.562;7.262;2023-08-06T13:11:21;1.73;;;1.05;;
25549;SDS011;13444;50.562;7.262;2023-08-06T13:13:47;3.58;;;0.88;;
25549;SDS011;13444;50.562;7.262;2023-08-06T13:16:13;3.40;;;1.08;;
25549;SDS011;13444;50.562;7.262;2023-08-06T13:18:38;4.38;;;0.98;;
25549;SDS011;13444;50.562;7.262;2023-08-06T13:21:04;1.73;;;0.77;;
25549;SDS011;13444;50.562;7.262;2023-08-06T13:23:29;0.85;;;0.77;;
25549;SDS011;13444;50.562;7.262;2023-08-06T13:25:55;3.28;;;0.80;;
25549;SDS011;13444;50.562;7.262;2023-08-06T13:28:20;2.03;;;0.80;;
25549;SDS011;13444;50.562;7.262;2023-08-06T13:30:46;4.15;;;0.88;;
25549;SDS011;13444;50.562;7.262;2023-08-06T13:33:11;1.17;;;0.68;;
25549;SDS011;13444;50.562;7.262;2023-08-06T13:35:37;2.17;;;0.88;;
25549;SDS011;13444;50.562;7.262;2023-08-06T13:38:03;3.13;;;0.85;;
25549;SDS011;13444;50.562;7.262;2023-08-06T13:40:29;1.95;;;0.85;;
25549;SDS011;13444;50.562;7.262;2023-08-06T13:42:57;0.60;;;0.60;;
25549;SDS011;13444;50.562;7.262;2023-08-06T13:45:23;1.52;;;0.88;;
25549;SDS011;13444;50.562;7.262;2023-08-06T13:47:48;1.15;;;0.80;;
25549;SDS011;13444;50.562;7.262;2023-08-06T13:50:14;2.65;;;0.70;;
25549;SDS011;13444;50.562;7.262;2023-08-06T13:52:39;2.85;;;0.70;;
25549;SDS011;13444;50.562;7.262;2023-08-06T13:55:05;2.25;;;0.90;;
25549;SDS011;13444;50.562;7.262;2023-08-06T13:57:32;2.50;;;0.60;;
25549;SDS011;13444;50.562;7.262;2023-08-06T13:59:58;1.60;;;0.70;;
25549;SDS011;13444;50.562;7.262;2023-08-06T14:02:24;1.15;;;0.60;;
25549;SDS011;13444;50.562;7.262;2023-08-06T14:04:50;2.03;;;0.73;;
25549;SDS011;13444;50.562;7.262;2023-08-06T14:07:17;1.35;;;0.60;;
25549;SDS011;13444;50.562;7.262;2023-08-06T14:09:42;1.10;;;0.70;;
25549;SDS011;13444;50.562;7.262;2023-08-06T14:12:09;1.70;;;0.85;;
25549;SDS011;13444;50.562;7.262;2023-08-06T14:14:35;2.28;;;0.90;;
25549;SDS011;13444;50.562;7.262;2023-08-06T14:17:00;2.55;;;0.80;;
25549;SDS011;13444;50.562;7.262;2023-08-06T14:19:26;2.05;;;0.80;;
25549;SDS011;13444;50.562;7.262;2023-08-06T14:21:52;1.52;;;0.90;;
25549;SDS011;13444;50.562;7.262;2023-08-06T14:24:18;2.13;;;1.08;;
25549;SDS011;13444;50.562;7.262;2023-08-06T14:26:44;1.90;;;0.80;;
25549;SDS011;13444;50.562;7.262;2023-08-06T14:29:09;4.32;;;1.13;;
25549;SDS011;13444;50.562;7.262;2023-08-06T14:31:35;2.83;;;0.80;;
25549;SDS011;13444;50.562;7.262;2023-08-06T14:34:00;3.42;;;1.00;;
25549;SDS011;13444;50.562;7.262;2023-08-06T14:36:26;4.18;;;0.90;;
25549;SDS011;13444;50.562;7.262;2023-08-06T14:38:51;1.80;;;0.80;;
25549;SDS011;13444;50.562;7.262;2023-08-06T14:41:17;3.20;;;1.23;;
25549;SDS011;13444;50.562;7.262;2023-08-06T14:43:43;3.42;;;1.00;;
25549;SDS011;13444;50.562;7.262;2023-08-06T14:46:08;2.83;;;0.75;;
25549;SDS011;13444;50.562;7.262;2023-08-06T14:48:34;4.53;;;1.00;;
25549;SDS011;13444;50.562;7.262;2023-08-06T14:50:59;4.65;;;0.80;;